sensor_id;sensor_type;location;lat;lon;timestamp;P1;durP1;ratioP1;P2;durP2;ratioP2
16101;SDS011;56411;52.964;10.540;2022-11-15T00:00:00;42.67;;;26.30;;
16101;SDS011;56411;52.964;10.540;2022-11-15T00:02:27;44.50;;;25.57;;
16101;SDS011;56411;52.964;10.540;2022-11-15T00:04:55;44.30;;;25.77;;
16101;SDS011;56411;52.964;10.540;2022-11-15T00:07:22;43.07;;;25.03;;
16101;SDS011;56411;52.964;10.540;2022-11-15T00:09:49;45.17;;;26.23;;
16101;SDS011;56411;52.964;10.540;2022-11-15T00:12:16;46.03;;;25.90;;
16101;SDS011;56411;52.964;10.540;2022-11-15T00:14:44;44.07;;;25.57;;
16101;SDS011;56411;52.964;10.540;2022-11-15T00:17:11;44.47;;;26.03;;
16101;SDS011;56411;52.964;10.540;2022-11-15T00:19:38;42.97;;;25.20;;
16101;SDS011;56411;52.964;10.540;2022-11-15T00:22:06;44.70;;;25.20;;
16101;SDS011;56411;52.964;10.540;2022-11-15T00:24:33;50.30;;;26.17;;
16101;SDS011;56411;52.964;10.540;2022-11-15T00:27:00;45.33;;;25.17;;
16101;SDS011;56411;52.964;10.540;2022-11-15T00:29:27;48.60;;;25.77;;
16101;SDS011;56411;52.964;10.540;2022-11-15T00:31:55;47.10;;;26.27;;
16101;SDS011;56411;52.964;10.540;2022-11-15T00:34:22;49.03;;;28.10;;
16101;SDS011;56411;52.964;10.540;2022-11-15T00:36:49;50.20;;;26.40;;
16101;SDS011;56411;52.964;10.540;2022-11-15T00:39:18;50.30;;;26.77;;
16101;SDS011;56411;52.964;10.540;2022-11-15T00:41:45;45.73;;;25.50;;
16101;SDS011;56411;52.964;10.540;2022-11-15T00:44:12;44.93;;;24.67;;
16101;SDS011;56411;52.964;10.540;2022-11-15T00:46:39;47.57;;;25.60;;
16101;SDS011;56411;52.964;10.540;2022-11-15T00:49:07;46.73;;;24.27;;
16101;SDS011;56411;52.964;10.540;2022-11-15T00:51:34;46.30;;;24.23;;
16101;SDS011;56411;52.964;10.540;2022-11-15T00:54:01;49.27;;;25.83;;
16101;SDS011;56411;52.964;10.540;2022-11-15T00:56:29;44.30;;;25.97;;
16101;SDS011;56411;52.964;10.540;2022-11-15T00:58:56;47.20;;;25.77;;
16101;SDS011;56411;52.964;10.540;2022-11-15T01:01:23;48.43;;;26.10;;
16101;SDS011;56411;52.964;10.540;2022-11-15T01:03:50;43.50;;;24.37;;
16101;SDS011;56411;52.964;10.540;2022-11-15T01:06:17;44.20;;;24.27;;
16101;SDS011;56411;52.964;10.540;2022-11-15T01:08:44;44.67;;;23.87;;
16101;SDS011;56411;52.964;10.540;2022-11-15T01:11:11;45.10;;;24.60;;
16101;SDS011;56411;52.964;10.540;2022-11-15T01:13:40;44.53;;;24.20;;
16101;SDS011;56411;52.964;10.540;2022-11-15T01:16:08;45.47;;;24.83;;
16101;SDS011;56411;52.964;10.540;2022-11-15T01:18:37;47.00;;;25.53;;
16101;SDS011;56411;52.964;10.540;2022-11-15T01:21:05;47.77;;;24.73;;
16101;SDS011;56411;52.964;10.540;2022-11-15T01:23:33;44.03;;;24.00;;
16101;SDS011;56411;52.964;10.540;2022-11-15T01:26:00;42.73;;;23.27;;
16101;SDS011;56411;52.964;10.540;2022-11-15T01:28:29;47.37;;;24.57;;
16101;SDS011;56411;52.964;10.540;2022-11-15T01:30:59;45.77;;;24.83;;
16101;SDS011;56411;52.964;10.540;2022-11-15T01:33:27;46.03;;;24.70;;
16101;SDS011;56411;52.964;10.540;2022-11-15T01:35:54;47.60;;;24.70;;
16101;SDS011;56411;52.964;10.540;2022-11-15T01:38:22;52.77;;;25.67;;
16101;SDS011;56411;52.964;10.540;2022-11-15T01:40:49;52.27;;;26.53;;
16101;SDS011;56411;52.964;10.540;2022-11-15T01:43:20;51.80;;;26.33;;
16101;SDS011;56411;52.964;10.540;2022-11-15T01:45:48;52.53;;;25.73;;
16101;SDS011;56411;52.964;10.540;2022-11-15T01:48:20;49.40;;;25.80;;
16101;SDS011;56411;52.964;10.540;2022-11-15T01:50:49;55.47;;;25.37;;
16101;SDS011;56411;52.964;10.540;2022-11-15T01:53:17;48.07;;;25.43;;
16101;SDS011;56411;52.964;10.540;2022-11-15T01:55:47;49.50;;;25.77;;
16101;SDS011;56411;52.964;10.540;2022-11-15T01:58:14;49.57;;;25.57;;
16101;SDS011;56411;52.964;10.540;2022-11-15T02:00:42;54.67;;;27.20;;
16101;SDS011;56411;52.964;10.540;2022-11-15T02:03:09;55.87;;;26.53;;
16101;SDS011;56411;52.964;10.540;2022-11-15T02:05:38;50.53;;;24.70;;
16101;SDS011;56411;52.964;10.540;2022-11-15T02:08:06;52.00;;;24.67;;
16101;SDS011;56411;52.964;10.540;2022-11-15T02:10:44;59.90;;;26.70;;
16101;SDS011;56411;52.964;10.540;2022-11-15T02:13:12;58.97;;;25.63;;
16101;SDS011;56411;52.964;10.540;2022-11-15T02:15:40;63.87;;;28.07;;
16101;SDS011;56411;52.964;10.540;2022-11-15T02:18:16;64.17;;;28.30;;
16101;SDS011;56411;52.964;10.540;2022-11-15T02:23:58;63.57;;;25.97;;
16101;SDS011;56411;52.964;10.540;2022-11-15T02:29:56;64.40;;;26.47;;
16101;SDS011;56411;52.964;10.540;2022-11-15T02:32:33;64.17;;;27.90;;
16101;SDS011;56411;52.964;10.540;2022-11-15T02:35:09;64.20;;;27.67;;
16101;SDS011;56411;52.964;10.540;2022-11-15T02:37:45;68.27;;;28.60;;
16101;SDS011;56411;52.964;10.540;2022-11-15T02:40:20;63.23;;;27.67;;
16101;SDS011;56411;52.964;10.540;2022-11-15T02:42:55;65.63;;;29.70;;
16101;SDS011;56411;52.964;10.540;2022-11-15T02:45:46;57.33;;;26.83;;
16101;SDS011;56411;52.964;10.540;2022-11-15T02:48:19;54.87;;;27.03;;
16101;SDS011;56411;52.964;10.540;2022-11-15T02:50:48;55.17;;;26.37;;
16101;SDS011;56411;52.964;10.540;2022-11-15T02:53:15;54.63;;;25.57;;
16101;SDS011;56411;52.964;10.540;2022-11-15T02:55:43;52.90;;;26.00;;
16101;SDS011;56411;52.964;10.540;2022-11-15T02:58:20;54.13;;;25.53;;
16101;SDS011;56411;52.964;10.540;2022-11-15T03:00:58;49.73;;;23.47;;
16101;SDS011;56411;52.964;10.540;2022-11-15T03:03:37;53.47;;;24.60;;
16101;SDS011;56411;52.964;10.540;2022-11-15T03:06:18;48.43;;;23.50;;
16101;SDS011;56411;52.964;10.540;2022-11-15T03:08:54;47.90;;;23.90;;
16101;SDS011;56411;52.964;10.540;2022-11-15T03:11:29;50.83;;;24.40;;
16101;SDS011;56411;52.964;10.540;2022-11-15T03:14:02;48.47;;;23.73;;
16101;SDS011;56411;52.964;10.540;2022-11-15T03:16:40;44.60;;;22.90;;
16101;SDS011;56411;52.964;10.540;2022-11-15T03:19:17;50.20;;;23.23;;
16101;SDS011;56411;52.964;10.540;2022-11-15T03:21:52;48.87;;;23.63;;
16101;SDS011;56411;52.964;10.540;2022-11-15T03:24:21;51.73;;;24.47;;
16101;SDS011;56411;52.964;10.540;2022-11-15T03:26:51;48.47;;;23.60;;
16101;SDS011;56411;52.964;10.540;2022-11-15T03:29:22;48.97;;;23.57;;
16101;SDS011;56411;52.964;10.540;2022-11-15T03:31:53;56.63;;;25.33;;
16101;SDS011;56411;52.964;10.540;2022-11-15T03:34:27;48.93;;;24.33;;
16101;SDS011;56411;52.964;10.540;2022-11-15T03:36:58;46.33;;;23.43;;
16101;SDS011;56411;52.964;10.540;2022-11-15T03:39:26;48.60;;;24.00;;
16101;SDS011;56411;52.964;10.540;2022-11-15T03:41:57;46.83;;;23.43;;
16101;SDS011;56411;52.964;10.540;2022-11-15T03:44:36;47.33;;;23.43;;
16101;SDS011;56411;52.964;10.540;2022-11-15T03:47:12;52.83;;;26.20;;
16101;SDS011;56411;52.964;10.540;2022-11-15T03:49:46;49.47;;;25.93;;
16101;SDS011;56411;52.964;10.540;2022-11-15T03:52:17;47.70;;;25.00;;
16101;SDS011;56411;52.964;10.540;2022-11-15T03:54:53;49.77;;;25.53;;
16101;SDS011;56411;52.964;10.540;2022-11-15T03:57:21;45.70;;;23.57;;
16101;SDS011;56411;52.964;10.540;2022-11-15T03:59:48;46.17;;;23.23;;
16101;SDS011;56411;52.964;10.540;2022-11-15T04:02:16;46.20;;;23.50;;
16101;SDS011;56411;52.964;10.540;2022-11-15T04:04:43;47.33;;;23.40;;
16101;SDS011;56411;52.964;10.540;2022-11-15T04:07:11;46.93;;;23.83;;
16101;SDS011;56411;52.964;10.540;2022-11-15T04:09:38;40.73;;;21.50;;
16101;SDS011;56411;52.964;10.540;2022-11-15T04:12:19;47.67;;;23.63;;
16101;SDS011;56411;52.964;10.540;2022-11-15T04:14:56;46.27;;;23.07;;
16101;SDS011;56411;52.964;10.540;2022-11-15T04:17:36;42.10;;;21.67;;
16101;SDS011;56411;52.964;10.540;2022-11-15T04:20:07;44.20;;;22.87;;
16101;SDS011;56411;52.964;10.540;2022-11-15T04:22:55;45.20;;;21.60;;
16101;SDS011;56411;52.964;10.540;2022-11-15T04:25:40;41.63;;;21.90;;
16101;SDS011;56411;52.964;10.540;2022-11-15T04:28:08;43.23;;;22.23;;
16101;SDS011;56411;52.964;10.540;2022-11-15T04:30:35;43.80;;;22.60;;
16101;SDS011;56411;52.964;10.540;2022-11-15T04:33:02;43.17;;;22.13;;
16101;SDS011;56411;52.964;10.540;2022-11-15T04:35:31;41.13;;;22.37;;
16101;SDS011;56411;52.964;10.540;2022-11-15T04:37:59;42.87;;;21.97;;
16101;SDS011;56411;52.964;10.540;2022-11-15T04:40:25;43.33;;;23.10;;
16101;SDS011;56411;52.964;10.540;2022-11-15T04:42:53;45.97;;;22.13;;
16101;SDS011;56411;52.964;10.540;2022-11-15T04:45:20;43.40;;;21.70;;
16101;SDS011;56411;52.964;10.540;2022-11-15T04:47:47;44.60;;;23.53;;
16101;SDS011;56411;52.964;10.540;2022-11-15T04:50:14;42.83;;;22.50;;
16101;SDS011;56411;52.964;10.540;2022-11-15T04:52:48;42.63;;;22.20;;
16101;SDS011;56411;52.964;10.540;2022-11-15T04:55:17;42.10;;;22.30;;
16101;SDS011;56411;52.964;10.540;2022-11-15T04:57:44;43.13;;;22.33;;
16101;SDS011;56411;52.964;10.540;2022-11-15T05:00:12;45.47;;;23.07;;
16101;SDS011;56411;52.964;10.540;2022-11-15T05:02:40;43.57;;;22.80;;
16101;SDS011;56411;52.964;10.540;2022-11-15T05:05:24;43.43;;;22.63;;
16101;SDS011;56411;52.964;10.540;2022-11-15T05:07:53;41.67;;;22.30;;
16101;SDS011;56411;52.964;10.540;2022-11-15T05:10:20;43.73;;;21.13;;
16101;SDS011;56411;52.964;10.540;2022-11-15T05:12:47;42.63;;;22.27;;
16101;SDS011;56411;52.964;10.540;2022-11-15T05:15:14;41.53;;;21.97;;
16101;SDS011;56411;52.964;10.540;2022-11-15T05:17:42;47.07;;;23.33;;
16101;SDS011;56411;52.964;10.540;2022-11-15T05:20:09;43.23;;;22.37;;
16101;SDS011;56411;52.964;10.540;2022-11-15T05:22:37;45.07;;;22.67;;
16101;SDS011;56411;52.964;10.540;2022-11-15T05:25:06;43.57;;;22.83;;
16101;SDS011;56411;52.964;10.540;2022-11-15T05:27:34;48.13;;;23.00;;
16101;SDS011;56411;52.964;10.540;2022-11-15T05:30:01;43.17;;;22.50;;
16101;SDS011;56411;52.964;10.540;2022-11-15T05:32:28;40.03;;;22.20;;
16101;SDS011;56411;52.964;10.540;2022-11-15T05:34:55;41.43;;;22.27;;
16101;SDS011;56411;52.964;10.540;2022-11-15T05:37:22;41.83;;;22.60;;
16101;SDS011;56411;52.964;10.540;2022-11-15T05:39:50;43.27;;;21.77;;
16101;SDS011;56411;52.964;10.540;2022-11-15T05:42:18;42.20;;;22.17;;
16101;SDS011;56411;52.964;10.540;2022-11-15T05:44:46;46.10;;;23.70;;
16101;SDS011;56411;52.964;10.540;2022-11-15T05:47:15;44.00;;;23.27;;
16101;SDS011;56411;52.964;10.540;2022-11-15T05:49:45;42.37;;;22.67;;
16101;SDS011;56411;52.964;10.540;2022-11-15T05:52:14;44.00;;;21.87;;
16101;SDS011;56411;52.964;10.540;2022-11-15T05:54:46;43.77;;;22.73;;
16101;SDS011;56411;52.964;10.540;2022-11-15T05:57:14;44.43;;;22.93;;
16101;SDS011;56411;52.964;10.540;2022-11-15T05:59:43;44.50;;;22.43;;
16101;SDS011;56411;52.964;10.540;2022-11-15T06:02:10;45.60;;;22.77;;
16101;SDS011;56411;52.964;10.540;2022-11-15T06:04:38;48.13;;;23.57;;
16101;SDS011;56411;52.964;10.540;2022-11-15T06:07:05;44.30;;;22.70;;
16101;SDS011;56411;52.964;10.540;2022-11-15T06:09:32;46.23;;;22.57;;
16101;SDS011;56411;52.964;10.540;2022-11-15T06:11:59;45.10;;;23.33;;
16101;SDS011;56411;52.964;10.540;2022-11-15T06:14:27;45.00;;;22.43;;
16101;SDS011;56411;52.964;10.540;2022-11-15T06:16:56;44.13;;;22.90;;
16101;SDS011;56411;52.964;10.540;2022-11-15T06:19:23;45.17;;;23.40;;
16101;SDS011;56411;52.964;10.540;2022-11-15T06:21:50;49.27;;;24.10;;
16101;SDS011;56411;52.964;10.540;2022-11-15T06:24:17;46.27;;;23.93;;
16101;SDS011;56411;52.964;10.540;2022-11-15T06:26:44;46.33;;;23.30;;
16101;SDS011;56411;52.964;10.540;2022-11-15T06:29:11;45.03;;;23.10;;
16101;SDS011;56411;52.964;10.540;2022-11-15T06:31:39;49.20;;;24.30;;
16101;SDS011;56411;52.964;10.540;2022-11-15T06:34:07;45.60;;;23.60;;
16101;SDS011;56411;52.964;10.540;2022-11-15T06:36:34;47.30;;;25.17;;
16101;SDS011;56411;52.964;10.540;2022-11-15T06:39:02;51.00;;;24.97;;
16101;SDS011;56411;52.964;10.540;2022-11-15T06:41:29;45.50;;;24.50;;
16101;SDS011;56411;52.964;10.540;2022-11-15T06:43:56;48.53;;;24.97;;
16101;SDS011;56411;52.964;10.540;2022-11-15T06:46:23;46.87;;;24.37;;
16101;SDS011;56411;52.964;10.540;2022-11-15T06:48:50;48.87;;;25.23;;
16101;SDS011;56411;52.964;10.540;2022-11-15T06:51:19;48.50;;;25.00;;
16101;SDS011;56411;52.964;10.540;2022-11-15T06:53:47;50.10;;;27.40;;
16101;SDS011;56411;52.964;10.540;2022-11-15T06:56:14;50.73;;;26.40;;
16101;SDS011;56411;52.964;10.540;2022-11-15T06:58:42;55.10;;;26.63;;
16101;SDS011;56411;52.964;10.540;2022-11-15T07:01:10;47.20;;;25.10;;
16101;SDS011;56411;52.964;10.540;2022-11-15T07:03:39;50.63;;;25.23;;
16101;SDS011;56411;52.964;10.540;2022-11-15T07:06:08;48.97;;;25.20;;
16101;SDS011;56411;52.964;10.540;2022-11-15T07:08:37;48.33;;;24.87;;
16101;SDS011;56411;52.964;10.540;2022-11-15T07:11:07;46.13;;;24.60;;
16101;SDS011;56411;52.964;10.540;2022-11-15T07:13:35;46.33;;;25.10;;
16101;SDS011;56411;52.964;10.540;2022-11-15T07:16:03;45.47;;;24.87;;
16101;SDS011;56411;52.964;10.540;2022-11-15T07:18:33;49.50;;;25.87;;
16101;SDS011;56411;52.964;10.540;2022-11-15T07:21:01;49.67;;;24.90;;
16101;SDS011;56411;52.964;10.540;2022-11-15T07:23:29;47.87;;;24.13;;
16101;SDS011;56411;52.964;10.540;2022-11-15T07:25:58;42.77;;;22.93;;
16101;SDS011;56411;52.964;10.540;2022-11-15T07:28:25;47.37;;;24.70;;
16101;SDS011;56411;52.964;10.540;2022-11-15T07:30:53;45.33;;;24.10;;
16101;SDS011;56411;52.964;10.540;2022-11-15T07:33:20;44.80;;;24.23;;
16101;SDS011;56411;52.964;10.540;2022-11-15T07:35:47;44.40;;;23.77;;
16101;SDS011;56411;52.964;10.540;2022-11-15T07:38:14;44.33;;;23.40;;
16101;SDS011;56411;52.964;10.540;2022-11-15T07:40:44;42.63;;;22.73;;
16101;SDS011;56411;52.964;10.540;2022-11-15T07:43:13;42.50;;;23.50;;
16101;SDS011;56411;52.964;10.540;2022-11-15T07:45:59;46.83;;;24.07;;
16101;SDS011;56411;52.964;10.540;2022-11-15T07:48:34;45.33;;;24.87;;
16101;SDS011;56411;52.964;10.540;2022-11-15T07:51:01;43.53;;;24.23;;
16101;SDS011;56411;52.964;10.540;2022-11-15T07:53:29;43.70;;;23.30;;
16101;SDS011;56411;52.964;10.540;2022-11-15T07:55:56;44.70;;;24.40;;
16101;SDS011;56411;52.964;10.540;2022-11-15T07:58:24;43.37;;;23.67;;
16101;SDS011;56411;52.964;10.540;2022-11-15T08:00:51;47.07;;;25.07;;
16101;SDS011;56411;52.964;10.540;2022-11-15T08:03:18;40.80;;;22.70;;
16101;SDS011;56411;52.964;10.540;2022-11-15T08:05:49;46.20;;;24.70;;
16101;SDS011;56411;52.964;10.540;2022-11-15T08:08:17;44.80;;;24.63;;
16101;SDS011;56411;52.964;10.540;2022-11-15T08:10:44;46.60;;;24.67;;
16101;SDS011;56411;52.964;10.540;2022-11-15T08:13:12;46.20;;;25.27;;
16101;SDS011;56411;52.964;10.540;2022-11-15T08:15:40;48.03;;;24.13;;
16101;SDS011;56411;52.964;10.540;2022-11-15T08:18:10;44.30;;;24.87;;
16101;SDS011;56411;52.964;10.540;2022-11-15T08:20:38;46.80;;;23.83;;
16101;SDS011;56411;52.964;10.540;2022-11-15T08:23:06;45.80;;;24.00;;
16101;SDS011;56411;52.964;10.540;2022-11-15T08:25:34;42.20;;;23.20;;
16101;SDS011;56411;52.964;10.540;2022-11-15T08:28:03;44.87;;;23.77;;
16101;SDS011;56411;52.964;10.540;2022-11-15T08:30:34;43.63;;;23.87;;
16101;SDS011;56411;52.964;10.540;2022-11-15T08:33:04;41.20;;;22.20;;
16101;SDS011;56411;52.964;10.540;2022-11-15T08:35:31;40.33;;;22.43;;
16101;SDS011;56411;52.964;10.540;2022-11-15T08:37:58;38.40;;;22.03;;
16101;SDS011;56411;52.964;10.540;2022-11-15T08:40:25;40.40;;;22.67;;
16101;SDS011;56411;52.964;10.540;2022-11-15T08:42:53;37.87;;;21.83;;
16101;SDS011;56411;52.964;10.540;2022-11-15T08:45:20;37.17;;;20.13;;
16101;SDS011;56411;52.964;10.540;2022-11-15T08:47:47;34.57;;;20.43;;
16101;SDS011;56411;52.964;10.540;2022-11-15T08:50:16;34.07;;;21.23;;
16101;SDS011;56411;52.964;10.540;2022-11-15T08:52:44;37.03;;;21.77;;
16101;SDS011;56411;52.964;10.540;2022-11-15T08:55:13;39.00;;;21.57;;
16101;SDS011;56411;52.964;10.540;2022-11-15T08:57:40;35.67;;;21.03;;
16101;SDS011;56411;52.964;10.540;2022-11-15T09:00:08;37.40;;;20.93;;
16101;SDS011;56411;52.964;10.540;2022-11-15T09:02:37;34.70;;;20.40;;
16101;SDS011;56411;52.964;10.540;2022-11-15T09:05:05;34.57;;;20.17;;
16101;SDS011;56411;52.964;10.540;2022-11-15T09:07:35;32.90;;;19.73;;
16101;SDS011;56411;52.964;10.540;2022-11-15T09:10:03;34.10;;;20.70;;
16101;SDS011;56411;52.964;10.540;2022-11-15T09:12:31;32.77;;;20.83;;
16101;SDS011;56411;52.964;10.540;2022-11-15T09:14:58;36.53;;;20.83;;
16101;SDS011;56411;52.964;10.540;2022-11-15T09:17:24;33.43;;;20.20;;
16101;SDS011;56411;52.964;10.540;2022-11-15T09:19:52;32.57;;;19.90;;
16101;SDS011;56411;52.964;10.540;2022-11-15T09:22:19;33.37;;;20.20;;
16101;SDS011;56411;52.964;10.540;2022-11-15T09:24:47;35.57;;;19.50;;
16101;SDS011;56411;52.964;10.540;2022-11-15T09:27:15;34.37;;;20.23;;
16101;SDS011;56411;52.964;10.540;2022-11-15T09:29:42;32.27;;;19.83;;
16101;SDS011;56411;52.964;10.540;2022-11-15T09:32:09;34.47;;;21.20;;
16101;SDS011;56411;52.964;10.540;2022-11-15T09:34:36;35.17;;;20.60;;
16101;SDS011;56411;52.964;10.540;2022-11-15T09:37:04;30.67;;;19.10;;
16101;SDS011;56411;52.964;10.540;2022-11-15T09:39:31;32.87;;;19.47;;
16101;SDS011;56411;52.964;10.540;2022-11-15T09:42:03;31.90;;;20.03;;
16101;SDS011;56411;52.964;10.540;2022-11-15T09:44:51;30.27;;;17.93;;
16101;SDS011;56411;52.964;10.540;2022-11-15T09:47:48;33.30;;;19.60;;
16101;SDS011;56411;52.964;10.540;2022-11-15T09:50:35;30.13;;;17.37;;
16101;SDS011;56411;52.964;10.540;2022-11-15T09:53:08;30.33;;;17.53;;
16101;SDS011;56411;52.964;10.540;2022-11-15T09:55:40;29.37;;;17.37;;
16101;SDS011;56411;52.964;10.540;2022-11-15T09:58:18;26.33;;;16.87;;
16101;SDS011;56411;52.964;10.540;2022-11-15T10:00:53;24.13;;;15.13;;
16101;SDS011;56411;52.964;10.540;2022-11-15T10:03:23;24.40;;;15.30;;
16101;SDS011;56411;52.964;10.540;2022-11-15T10:05:54;23.37;;;13.87;;
16101;SDS011;56411;52.964;10.540;2022-11-15T10:08:32;24.97;;;14.20;;
16101;SDS011;56411;52.964;10.540;2022-11-15T10:11:15;20.90;;;12.90;;
16101;SDS011;56411;52.964;10.540;2022-11-15T10:13:47;20.97;;;13.43;;
16101;SDS011;56411;52.964;10.540;2022-11-15T10:16:30;21.53;;;12.90;;
16101;SDS011;56411;52.964;10.540;2022-11-15T10:19:07;18.53;;;11.03;;
16101;SDS011;56411;52.964;10.540;2022-11-15T10:21:48;16.60;;;10.23;;
16101;SDS011;56411;52.964;10.540;2022-11-15T10:24:25;18.63;;;11.33;;
16101;SDS011;56411;52.964;10.540;2022-11-15T10:26:54;18.30;;;11.23;;
16101;SDS011;56411;52.964;10.540;2022-11-15T10:29:24;17.90;;;10.97;;
16101;SDS011;56411;52.964;10.540;2022-11-15T10:31:51;18.55;;;11.00;;
16101;SDS011;56411;52.964;10.540;2022-11-15T10:34:19;17.53;;;10.70;;
16101;SDS011;56411;52.964;10.540;2022-11-15T10:36:53;16.60;;;9.80;;
16101;SDS011;56411;52.964;10.540;2022-11-15T10:39:22;18.58;;;10.60;;
16101;SDS011;56411;52.964;10.540;2022-11-15T10:41:50;16.33;;;9.50;;
16101;SDS011;56411;52.964;10.540;2022-11-15T10:44:19;15.27;;;8.67;;
16101;SDS011;56411;52.964;10.540;2022-11-15T10:47:05;15.43;;;9.05;;
16101;SDS011;56411;52.964;10.540;2022-11-15T10:50:00;16.25;;;8.68;;
16101;SDS011;56411;52.964;10.540;2022-11-15T10:52:31;18.55;;;10.20;;
16101;SDS011;56411;52.964;10.540;2022-11-15T10:55:02;14.88;;;8.25;;
16101;SDS011;56411;52.964;10.540;2022-11-15T10:57:48;15.82;;;9.23;;
16101;SDS011;56411;52.964;10.540;2022-11-15T11:00:26;16.38;;;8.85;;
16101;SDS011;56411;52.964;10.540;2022-11-15T11:02:59;16.27;;;8.98;;
16101;SDS011;56411;52.964;10.540;2022-11-15T11:05:28;15.20;;;8.68;;
16101;SDS011;56411;52.964;10.540;2022-11-15T11:07:58;15.75;;;8.88;;
16101;SDS011;56411;52.964;10.540;2022-11-15T11:10:27;14.63;;;8.43;;
16101;SDS011;56411;52.964;10.540;2022-11-15T11:12:55;14.55;;;8.95;;
16101;SDS011;56411;52.964;10.540;2022-11-15T11:15:22;16.48;;;8.40;;
16101;SDS011;56411;52.964;10.540;2022-11-15T11:17:57;14.80;;;8.85;;
16101;SDS011;56411;52.964;10.540;2022-11-15T11:20:33;15.70;;;8.98;;
16101;SDS011;56411;52.964;10.540;2022-11-15T11:23:13;16.48;;;9.50;;
16101;SDS011;56411;52.964;10.540;2022-11-15T11:25:53;18.95;;;11.02;;
16101;SDS011;56411;52.964;10.540;2022-11-15T11:28:41;18.40;;;10.68;;
16101;SDS011;56411;52.964;10.540;2022-11-15T11:31:20;15.77;;;9.90;;
16101;SDS011;56411;52.964;10.540;2022-11-15T11:33:57;16.33;;;10.05;;
16101;SDS011;56411;52.964;10.540;2022-11-15T11:36:34;16.42;;;9.38;;
16101;SDS011;56411;52.964;10.540;2022-11-15T11:39:14;16.63;;;9.73;;
16101;SDS011;56411;52.964;10.540;2022-11-15T11:41:50;16.05;;;9.75;;
16101;SDS011;56411;52.964;10.540;2022-11-15T11:44:29;16.52;;;9.05;;
16101;SDS011;56411;52.964;10.540;2022-11-15T11:47:00;15.55;;;9.02;;
16101;SDS011;56411;52.964;10.540;2022-11-15T11:52:09;14.52;;;8.70;;
16101;SDS011;56411;52.964;10.540;2022-11-15T11:54:42;14.13;;;8.15;;
16101;SDS011;56411;52.964;10.540;2022-11-15T11:57:19;14.27;;;7.88;;
16101;SDS011;56411;52.964;10.540;2022-11-15T11:59:58;15.15;;;8.05;;
16101;SDS011;56411;52.964;10.540;2022-11-15T12:02:33;15.85;;;8.80;;
16101;SDS011;56411;52.964;10.540;2022-11-15T12:05:09;15.35;;;8.73;;
16101;SDS011;56411;52.964;10.540;2022-11-15T12:07:43;13.45;;;8.30;;
16101;SDS011;56411;52.964;10.540;2022-11-15T12:10:20;16.13;;;8.45;;
16101;SDS011;56411;52.964;10.540;2022-11-15T12:12:53;14.38;;;8.13;;
16101;SDS011;56411;52.964;10.540;2022-11-15T12:15:26;13.82;;;7.93;;
16101;SDS011;56411;52.964;10.540;2022-11-15T12:17:57;14.20;;;8.23;;
16101;SDS011;56411;52.964;10.540;2022-11-15T12:20:30;15.43;;;10.10;;
16101;SDS011;56411;52.964;10.540;2022-11-15T12:23:03;15.35;;;10.35;;
16101;SDS011;56411;52.964;10.540;2022-11-15T12:25:35;16.05;;;10.52;;
16101;SDS011;56411;52.964;10.540;2022-11-15T12:28:12;15.20;;;9.85;;
16101;SDS011;56411;52.964;10.540;2022-11-15T12:30:43;14.75;;;8.80;;
16101;SDS011;56411;52.964;10.540;2022-11-15T12:33:31;13.70;;;8.82;;
16101;SDS011;56411;52.964;10.540;2022-11-15T12:36:05;14.35;;;9.05;;
16101;SDS011;56411;52.964;10.540;2022-11-15T12:38:53;15.93;;;9.40;;
16101;SDS011;56411;52.964;10.540;2022-11-15T12:41:22;15.82;;;8.77;;
16101;SDS011;56411;52.964;10.540;2022-11-15T12:43:51;14.77;;;9.38;;
16101;SDS011;56411;52.964;10.540;2022-11-15T12:46:24;14.90;;;9.25;;
16101;SDS011;56411;52.964;10.540;2022-11-15T12:52:12;15.70;;;9.88;;
16101;SDS011;56411;52.964;10.540;2022-11-15T12:54:58;15.15;;;8.70;;
16101;SDS011;56411;52.964;10.540;2022-11-15T12:57:29;15.23;;;9.10;;
16101;SDS011;56411;52.964;10.540;2022-11-15T12:59:59;15.35;;;8.93;;
16101;SDS011;56411;52.964;10.540;2022-11-15T13:02:29;14.75;;;8.90;;
16101;SDS011;56411;52.964;10.540;2022-11-15T13:07:59;16.42;;;9.10;;
16101;SDS011;56411;52.964;10.540;2022-11-15T13:10:29;15.63;;;9.23;;
16101;SDS011;56411;52.964;10.540;2022-11-15T13:12:59;13.98;;;8.57;;
16101;SDS011;56411;52.964;10.540;2022-11-15T13:15:31;14.32;;;8.77;;
16101;SDS011;56411;52.964;10.540;2022-11-15T13:21:01;14.20;;;8.82;;
16101;SDS011;56411;52.964;10.540;2022-11-15T13:23:54;15.20;;;8.88;;
16101;SDS011;56411;52.964;10.540;2022-11-15T13:26:22;14.65;;;8.27;;
16101;SDS011;56411;52.964;10.540;2022-11-15T13:28:49;13.88;;;8.70;;
16101;SDS011;56411;52.964;10.540;2022-11-15T13:31:25;13.10;;;7.53;;
16101;SDS011;56411;52.964;10.540;2022-11-15T13:33:59;15.80;;;8.23;;
16101;SDS011;56411;52.964;10.540;2022-11-15T13:36:29;14.63;;;8.38;;
16101;SDS011;56411;52.964;10.540;2022-11-15T13:39:01;14.30;;;8.20;;
16101;SDS011;56411;52.964;10.540;2022-11-15T13:41:31;16.05;;;8.18;;
16101;SDS011;56411;52.964;10.540;2022-11-15T13:44:00;15.15;;;8.50;;
16101;SDS011;56411;52.964;10.540;2022-11-15T13:46:29;16.77;;;8.38;;
16101;SDS011;56411;52.964;10.540;2022-11-15T13:48:58;16.17;;;8.57;;
16101;SDS011;56411;52.964;10.540;2022-11-15T13:51:32;15.50;;;8.63;;
16101;SDS011;56411;52.964;10.540;2022-11-15T13:54:07;16.67;;;8.10;;
16101;SDS011;56411;52.964;10.540;2022-11-15T13:56:40;14.77;;;8.10;;
16101;SDS011;56411;52.964;10.540;2022-11-15T13:59:10;15.98;;;8.35;;
16101;SDS011;56411;52.964;10.540;2022-11-15T14:01:43;14.95;;;8.48;;
16101;SDS011;56411;52.964;10.540;2022-11-15T14:04:11;16.48;;;8.38;;
16101;SDS011;56411;52.964;10.540;2022-11-15T14:06:44;14.25;;;7.75;;
16101;SDS011;56411;52.964;10.540;2022-11-15T14:09:30;15.50;;;8.05;;
16101;SDS011;56411;52.964;10.540;2022-11-15T14:11:59;13.60;;;7.40;;
16101;SDS011;56411;52.964;10.540;2022-11-15T14:14:28;15.85;;;8.18;;
16101;SDS011;56411;52.964;10.540;2022-11-15T14:16:57;13.20;;;7.78;;
16101;SDS011;56411;52.964;10.540;2022-11-15T14:19:36;16.08;;;8.10;;
16101;SDS011;56411;52.964;10.540;2022-11-15T14:22:15;14.88;;;7.82;;
16101;SDS011;56411;52.964;10.540;2022-11-15T14:24:47;14.60;;;7.82;;
16101;SDS011;56411;52.964;10.540;2022-11-15T14:27:40;15.50;;;8.38;;
16101;SDS011;56411;52.964;10.540;2022-11-15T14:30:12;12.43;;;7.22;;
16101;SDS011;56411;52.964;10.540;2022-11-15T14:32:42;14.02;;;7.32;;
16101;SDS011;56411;52.964;10.540;2022-11-15T14:35:12;14.32;;;7.40;;
16101;SDS011;56411;52.964;10.540;2022-11-15T14:37:42;13.77;;;7.38;;
16101;SDS011;56411;52.964;10.540;2022-11-15T14:40:13;14.65;;;7.32;;
16101;SDS011;56411;52.964;10.540;2022-11-15T14:42:41;12.55;;;6.72;;
16101;SDS011;56411;52.964;10.540;2022-11-15T14:45:10;12.93;;;6.57;;
16101;SDS011;56411;52.964;10.540;2022-11-15T14:47:40;11.90;;;6.32;;
16101;SDS011;56411;52.964;10.540;2022-11-15T14:50:10;12.70;;;6.72;;